Terminal Aerodrome Forecast
Issued by NWS

Home | Current Version | Previous Version | Text Only | Print | Product List | Glossary On
Versions: 1 2 3 4 5 6 7 8 9 10 11 12 13 14 15 16 17 18 19 20 21
000
FTUS44 KLIX 180545 AAA
TAFHDC
TAF AMD
KHDC 180545Z 1806/1906 00000KT 4SM BR OVC005
     FM180730 15004KT 2SM BR OVC003
     FM180900 VRB03KT 1/4SM FG VV002
     FM181600 15004KT P6SM BKN005
     FM181700 16004KT P6SM BKN015
     FM181800 16004KT P6SM VCSH BKN035=

USA.gov is the U.S. government's official web portal to all federal, state and local government web resources and services.